Архив погоды в Юрьевце

Метеограмма Юрьевец
Вторник, 25 Июня
Время местн. Темп Ветер Видим Явления Облачность нижн/средн/верх Атм. давл. Влжн Точка росы ВНГО R Сост. почвы Tg s
Напр Скр Прв ур.ст ур.м изм
06:00 +13.5° З 2 - 10 км - ясно 756 757 +0.8 73% +8.7° более 2.5 км - - - -
03:00 +11.1° З 2 - 10 км - переменная облачность 756 767 +0.4 75% +6.9° 1 км - - - -
00:00 +12.8° З,С-З 3 - 10 км - переменная облачность 755 767 +0.9 71% +7.7° 1 км - - - -
Понедельник, 24 Июня
Время местн. Темп Ветер Видим Явления Облачность нижн/средн/верх Атм. давл. Влжн Точка росы ВНГО R Сост. почвы Tg s
Напр Скр Прв ур.ст ур.м изм
21:00 - - - - 0.2 км - незначительная облачность 754 766 +0.2 - +7.6° 2.5 км - - - -
18:00 +19.9° З 3 - 10 км - облачно с прояснениями 754 766 +0.4 64% +13° 1 км - - - -
15:00 +22° З 3 - 10 км - преимущественно облачно 754 765 +0.2 56% +12.7° 1 км - - - -
12:00 +22.9° З,Ю-З 4 - 10 км - облачно с прояснениями 754 765 -0.4 58% +14.1° 1 км - - - -
09:00 +22.2° С-З 3 - 10 км - переменная облачность 754 766 +0.2 61% +14.4° более 2.5 км - - - -
06:00 +16.1° З 2 - 10 км - переменная облачность 754 766 -0.5 69% +10.5° более 2.5 км - Сухая (без трещин) - -
03:00 +15.6° С-З 2 - 10 км - переменная облачность 753 765 +0.5 69% +9.9° 1 км - - - -
00:00 +18.1° З 3 - 10 км - облачно 753 764 +0.5 58% +9.7° 1 км - - - -
Воскресенье, 23 Июня
Время местн. Темп Ветер Видим Явления Облачность нижн/средн/верх Атм. давл. Влжн Точка росы ВНГО R Сост. почвы Tg s
Напр Скр Прв ур.ст ур.м изм
21:00 +17.1° Ю-З 2 - 10 км - облачно 752 764 +0.1 62% +9.7° 1 км - - - -
18:00 +24.2° З,С-З 4 - 10 км - ясно 752 764 0 38% +8.8° более 2.5 км - - - -
15:00 +25.7° З 4 - 10 км - ясно 752 764 +0.2 32% +8° более 2.5 км - - - -
12:00 +25° З,С-З 2 - 10 км - переменная облачность 752 763 +0.2 49% +13.6° 1 км - - - -
09:00 +22° З 2 - 10 км - ясно 752 763 +0.8 64% +14.9° более 2.5 км - - - -
06:00 +20° З,С-З 4 - 10 км - облачно с прояснениями 751 762 +1.1 75% +15.5° 600 м - Влажная (без луж) - -
03:00 +18.4° З 2 - 10 км небо без изменений {ливневые осадки} переменная облачность 750 761 +1.1 85% +15.9° 600 м - - - -
00:00 +20.4° З,С-З 1 - 10 км небо без изменений {ливневые осадки} облачно с прояснениями 749 760 +0.5 78% +16.4° 600 м - - - -
Суббота, 22 Июня
Время местн. Темп Ветер Видим Явления Облачность нижн/средн/верх Атм. давл. Влжн Точка росы ВНГО R Сост. почвы Tg s
Напр Скр Прв ур.ст ур.м изм
21:00 +25.4° З 2 - 10 км - облачно с прояснениями 748 760 +0.4 66% +18.7° 600 м - - - -
18:00 +27.3° Ю-З 2 - 10 км ливневый дождь облачно с прояснениями 748 759 -0.6 51% +16.3° 600 м - - - -
15:00 +30° З 3 - 10 км - облачно с прояснениями 749 760 -1 35% +12.9° 1 км - - - -
12:00 +26.5° Ю 2 - 10 км - облачно с прояснениями 750 761 -0.2 49% +15° более 2.5 км - - - -
09:00 +25.8° З,Ю-З 1 - 10 км - облачно с прояснениями 750 761 -0.4 54% +15.9° более 2.5 км - - - -
06:00 +20.7° Ю 1 - 10 км - облачно 750 762 -0.5 63% +13.4° 1 км - Сухая (без трещин) - -
03:00 +19.4° Ю,Ю-В 1 - 10 км - облачно с прояснениями 751 762 0 76% +15.1° 1 км - - - -